Iblea — IBFK — position and weather

sailwx.info

Track history (hours):
 
Tides and Currents Weather Stations Pressure Air Temp Water Temp Dewpoint Dewpoint Depression Visibility Wind Speed Wind Dir Waves Ship Positions

Iblea

Last reported at 2015-Aug-01 15:07 UTC. Time now 2015-Aug-02 06:22 UTC.
Position N 39°12' E 017°50'.

Length 176 m; draft 9.4 m.

Type: Ship (hazmat cat A). MMSI: 247087700.

Date/timePositionNaut miles runAvg speedWind from/ knotsBaromVisibWave heightAir tempDewpointWater temp
2015-Aug-01 15:07N 39°12' E 017°50'712.3
2015-Aug-01 14:33N 39°07' E 017°44'1212.3
2015-Aug-01 13:32N 38°59' E 017°33'1212.1
2015-Aug-01 12:32N 38°50' E 017°22'1211.9
2015-Aug-01 11:32N 38°42' E 017°11'1212.1
2015-Aug-01 10:32N 38°34' E 016°59'7011.4
2015-Aug-01 04:27N 37°52' E 015°48'1011.0
2015-Aug-01 03:33N 37°55' E 015°36'1212.2
2015-Aug-01 02:33N 38°07' E 015°35'1111.1
2015-Aug-01 01:33N 38°17' E 015°41'1313.0
2015-Aug-01 00:33N 38°29' E 015°34'1312.9
2015-Jul-31 23:33N 38°41' E 015°27'1312.8
2015-Jul-31 22:33N 38°52' E 015°18'1313.0
2015-Jul-31 21:33N 39°01' E 015°07'1312.9
2015-Jul-31 20:33N 39°10' E 014°55'1312.9
2015-Jul-31 19:33N 39°19' E 014°43'1313.0
2015-Jul-31 18:33N 39°29' E 014°31'1412.8
2015-Jul-31 17:29N 39°38' E 014°18'1212.9
2015-Jul-31 16:33N 39°47' E 014°07'1512.7
2015-Jul-31 15:22N 39°57' E 013°53'1012.5
2015-Jul-31 14:33N 40°04' E 013°43'1212.4
2015-Jul-31 13:33N 40°13' E 013°32'1512.2
2015-Jul-31 12:20N 40°23' E 013°18'1112.3
2015-Jul-31 11:25N 40°31' E 013°08'1212.4
2015-Jul-31 10:26N 40°40' E 012°56'1212.4
2015-Jul-31 09:26N 40°48' E 012°44'1112.2
2015-Jul-31 08:31N 40°56' E 012°33'1312.3
2015-Jul-31 07:27N 41°03' E 012°19'1112.4
2015-Jul-31 06:33N 41°10' E 012°07'1212.3
2015-Jul-31 05:33N 41°17' E 011°54'3712.3
2015-Jul-31 02:33N 41°38' E 011°14'2412.2
2015-Jul-31 00:32N 41°53' E 010°47'1212.3
2015-Jul-30 23:33N 41°60' E 010°33'1512.8
2015-Jul-30 22:23N 42°09' E 010°17'2211.9
2015-Jul-30 20:30N 42°25' E 009°56'1212.6
2015-Jul-30 19:32N 42°37' E 009°56'1312.8
2015-Jul-30 18:33N 42°49' E 009°60'1313.3
2015-Jul-30 17:33N 43°02' E 010°04'1312.9
2015-Jul-30 16:33N 43°15' E 010°07'1312.8
2015-Jul-30 15:33N 43°27' E 010°10'8 8.2
2015-Jul-30 14:33N 43°34' E 010°18'0 0.1
2015-Jul-30 13:33N 43°34' E 010°18'0 0.0
2015-Jul-30 12:33N 43°34' E 010°18'0 0.0
2015-Jul-30 11:33N 43°34' E 010°18'0 0.0
2015-Jul-30 10:33N 43°34' E 010°18'0 0.0
2015-Jul-30 09:33N 43°34' E 010°18'0 0.0
2015-Jul-30 08:33N 43°34' E 010°18'0 0.0
2015-Jul-30 07:33N 43°34' E 010°18'0 0.0
2015-Jul-30 06:33N 43°34' E 010°18'0 0.0
2015-Jul-30 05:33N 43°34' E 010°18'0 0.0
2015-Jul-30 04:33N 43°34' E 010°18'0 0.0
2015-Jul-30 03:33N 43°34' E 010°18'0 0.0
2015-Jul-30 02:33N 43°34' E 010°18'0 0.0
2015-Jul-30 01:33N 43°34' E 010°18'0 0.0
2015-Jul-30 00:33N 43°34' E 010°18'0 0.0
2015-Jul-29 23:33N 43°34' E 010°18'0 0.0
2015-Jul-29 22:33N 43°34' E 010°18'0 0.0
2015-Jul-29 21:33N 43°34' E 010°18'0 0.0
2015-Jul-29 20:33N 43°34' E 010°18'0 0.0
2015-Jul-29 19:33N 43°34' E 010°18'0 0.0
2015-Jul-29 18:33N 43°34' E 010°18'0 0.0
2015-Jul-29 17:33N 43°34' E 010°18'0 0.0
2015-Jul-29 16:33N 43°34' E 010°18'0 0.0
2015-Jul-29 15:33N 43°34' E 010°18'0 0.0
2015-Jul-29 14:33N 43°34' E 010°18'0 0.0
2015-Jul-29 13:33N 43°34' E 010°18'0 0.0
2015-Jul-29 12:33N 43°34' E 010°18'0 0.0
2015-Jul-29 11:33N 43°34' E 010°18'0 0.0
2015-Jul-29 10:33N 43°34' E 010°18'0 0.0
2015-Jul-29 09:33N 43°34' E 010°18'0 0.0
2015-Jul-29 08:33N 43°34' E 010°18'0 0.0
2015-Jul-29 07:33N 43°34' E 010°18'0 0.0
2015-Jul-29 06:33N 43°34' E 010°18'0 0.0
2015-Jul-29 05:33N 43°34' E 010°18'0 0.0
2015-Jul-29 04:33N 43°34' E 010°18'0 0.0
2015-Jul-29 03:33N 43°34' E 010°18'0 0.0
2015-Jul-29 02:33N 43°34' E 010°18'0 0.0
2015-Jul-29 01:33N 43°34' E 010°18'0 0.0
2015-Jul-29 00:33N 43°34' E 010°18'0 0.0
2015-Jul-28 23:33N 43°34' E 010°18'0 0.0
2015-Jul-28 22:33N 43°34' E 010°18'0 0.0
2015-Jul-28 21:33N 43°34' E 010°18'0 0.0
2015-Jul-28 20:33N 43°34' E 010°18'0 0.0
2015-Jul-28 19:33N 43°34' E 010°18'0 0.0
2015-Jul-28 18:33N 43°34' E 010°18'0 0.0
2015-Jul-28 17:33N 43°34' E 010°18'0 0.0
2015-Jul-28 16:33N 43°34' E 010°18'0 0.0
2015-Jul-28 15:33N 43°34' E 010°18'0 0.0
2015-Jul-28 14:33N 43°34' E 010°18'0 0.0
2015-Jul-28 13:33N 43°34' E 010°18'0 0.0
2015-Jul-28 12:33N 43°34' E 010°18'0 0.0
2015-Jul-28 11:33N 43°34' E 010°18'0 0.0
2015-Jul-28 10:33N 43°34' E 010°18'0 0.0
2015-Jul-28 09:33N 43°34' E 010°18'0 0.0
2015-Jul-28 08:33N 43°34' E 010°18'2 2.4
2015-Jul-28 07:33N 43°31' E 010°16'1 1.4
2015-Jul-28 06:33N 43°30' E 010°17'0 0.1
2015-Jul-28 05:33N 43°30' E 010°17'0 0.0
2015-Jul-28 04:33N 43°30' E 010°17'0 0.0
2015-Jul-28 03:33N 43°30' E 010°17'0 0.0
2015-Jul-28 02:33N 43°30' E 010°17'0 0.0
2015-Jul-28 01:33N 43°30' E 010°17'0 0.0
2015-Jul-28 00:33N 43°30' E 010°17'0 0.1
2015-Jul-27 23:33N 43°30' E 010°17'1110.9
2015-Jul-27 22:33N 43°23' E 010°06'1312.8
2015-Jul-27 21:33N 43°17' E 009°50'1313.1
2015-Jul-27 20:33N 43°12' E 009°34'1613.8
2015-Jul-27 19:24N 43°06' E 009°13'5313.7
2015-Jul-27 15:33N 42°47' E 008°06'1313.3
2015-Jul-27 14:33N 42°43' E 007°49'1313.0
2015-Jul-27 13:33N 42°38' E 007°33'1513.0
2015-Jul-27 12:26N 42°33' E 007°14'1213.1
2015-Jul-27 11:33N 42°29' E 006°59'1513.4
2015-Jul-27 10:28N 42°23' E 006°41'1313.5
2015-Jul-27 09:32N 42°19' E 006°25'3913.1
2015-Jul-27 06:33N 42°05' E 005°36'4413.0
2015-Jul-27 03:11N 41°49' E 004°41'1112.6
2015-Jul-27 02:18N 41°45' E 004°27'912.5
2015-Jul-27 01:33N 41°42' E 004°15'1212.4
2015-Jul-27 00:33N 41°37' E 004°00'8912.6
2015-Jul-26 17:30N 41°05' E 002°10'1412.7
2015-Jul-26 16:24N 41°03' E 001°52'1613.2
2015-Jul-26 15:09N 41°04' E 001°30'11 0.2
2015-Jul-24 17:25N 41°04' E 001°16'0 0.0
2015-Jul-24 16:22N 41°04' E 001°16'0 0.0
2015-Jul-24 03:13N 41°04' E 001°16'0 0.0
2015-Jul-24 02:19N 41°04' E 001°16'0 0.0
2015-Jul-24 00:07N 41°04' E 001°16'0 0.0
2015-Jul-23 23:31N 41°04' E 001°16'0 0.0
2015-Jul-23 12:25N 41°04' E 001°16'0 0.0
2015-Jul-23 00:31N 41°04' E 001°16'0 0.0
2015-Jul-22 16:25N 41°04' E 001°16'0 0.0
2015-Jul-22 15:33N 41°04' E 001°16'  
Track history (hours):
 
Tides and Currents Weather Stations Pressure Air Temp Water Temp Dewpoint Dewpoint Depression Visibility Wind Speed Wind Dir Waves Ship Positions

Iblea

Last reported at 2015-Aug-01 15:07 UTC. Time now 2015-Aug-02 06:22 UTC.
Position N 39°12' E 017°50'.

Length 176 m; draft 9.4 m.

Type: Ship (hazmat cat A). MMSI: 247087700.

Date/timePositionNaut miles runAvg speedWind from/ knotsBaromVisibWave heightAir tempDewpointWater temp
2015-Aug-01 15:07N 39°12' E 017°50'712.3
2015-Aug-01 14:33N 39°07' E 017°44'1212.3
2015-Aug-01 13:32N 38°59' E 017°33'1212.1
2015-Aug-01 12:32N 38°50' E 017°22'1211.9
2015-Aug-01 11:32N 38°42' E 017°11'1212.1
2015-Aug-01 10:32N 38°34' E 016°59'7011.4
2015-Aug-01 04:27N 37°52' E 015°48'1011.0
2015-Aug-01 03:33N 37°55' E 015°36'1212.2
2015-Aug-01 02:33N 38°07' E 015°35'1111.1
2015-Aug-01 01:33N 38°17' E 015°41'1313.0
2015-Aug-01 00:33N 38°29' E 015°34'1312.9
2015-Jul-31 23:33N 38°41' E 015°27'1312.8
2015-Jul-31 22:33N 38°52' E 015°18'1313.0
2015-Jul-31 21:33N 39°01' E 015°07'1312.9
2015-Jul-31 20:33N 39°10' E 014°55'1312.9
2015-Jul-31 19:33N 39°19' E 014°43'1313.0
2015-Jul-31 18:33N 39°29' E 014°31'1412.8
2015-Jul-31 17:29N 39°38' E 014°18'1212.9
2015-Jul-31 16:33N 39°47' E 014°07'1512.7
2015-Jul-31 15:22N 39°57' E 013°53'1012.5
2015-Jul-31 14:33N 40°04' E 013°43'1212.4
2015-Jul-31 13:33N 40°13' E 013°32'1512.2
2015-Jul-31 12:20N 40°23' E 013°18'1112.3
2015-Jul-31 11:25N 40°31' E 013°08'1212.4
2015-Jul-31 10:26N 40°40' E 012°56'1212.4
2015-Jul-31 09:26N 40°48' E 012°44'1112.2
2015-Jul-31 08:31N 40°56' E 012°33'1312.3
2015-Jul-31 07:27N 41°03' E 012°19'1112.4
2015-Jul-31 06:33N 41°10' E 012°07'1212.3
2015-Jul-31 05:33N 41°17' E 011°54'3712.3
2015-Jul-31 02:33N 41°38' E 011°14'2412.2
2015-Jul-31 00:32N 41°53' E 010°47'1212.3
2015-Jul-30 23:33N 41°60' E 010°33'1512.8
2015-Jul-30 22:23N 42°09' E 010°17'2211.9
2015-Jul-30 20:30N 42°25' E 009°56'1212.6
2015-Jul-30 19:32N 42°37' E 009°56'1312.8
2015-Jul-30 18:33N 42°49' E 009°60'1313.3
2015-Jul-30 17:33N 43°02' E 010°04'1312.9
2015-Jul-30 16:33N 43°15' E 010°07'1312.8
2015-Jul-30 15:33N 43°27' E 010°10'8 8.2
2015-Jul-30 14:33N 43°34' E 010°18'0 0.1
2015-Jul-30 13:33N 43°34' E 010°18'0 0.0
2015-Jul-30 12:33N 43°34' E 010°18'0 0.0
2015-Jul-30 11:33N 43°34' E 010°18'0 0.0
2015-Jul-30 10:33N 43°34' E 010°18'0 0.0
2015-Jul-30 09:33N 43°34' E 010°18'0 0.0
2015-Jul-30 08:33N 43°34' E 010°18'0 0.0
2015-Jul-30 07:33N 43°34' E 010°18'0 0.0
2015-Jul-30 06:33N 43°34' E 010°18'0 0.0
2015-Jul-30 05:33N 43°34' E 010°18'0 0.0
2015-Jul-30 04:33N 43°34' E 010°18'0 0.0
2015-Jul-30 03:33N 43°34' E 010°18'0 0.0
2015-Jul-30 02:33N 43°34' E 010°18'0 0.0
2015-Jul-30 01:33N 43°34' E 010°18'0 0.0
2015-Jul-30 00:33N 43°34' E 010°18'0 0.0
2015-Jul-29 23:33N 43°34' E 010°18'0 0.0
2015-Jul-29 22:33N 43°34' E 010°18'0 0.0
2015-Jul-29 21:33N 43°34' E 010°18'0 0.0
2015-Jul-29 20:33N 43°34' E 010°18'0 0.0
2015-Jul-29 19:33N 43°34' E 010°18'0 0.0
2015-Jul-29 18:33N 43°34' E 010°18'0 0.0
2015-Jul-29 17:33N 43°34' E 010°18'0 0.0
2015-Jul-29 16:33N 43°34' E 010°18'0 0.0
2015-Jul-29 15:33N 43°34' E 010°18'0 0.0
2015-Jul-29 14:33N 43°34' E 010°18'0 0.0
2015-Jul-29 13:33N 43°34' E 010°18'0 0.0
2015-Jul-29 12:33N 43°34' E 010°18'0 0.0
2015-Jul-29 11:33N 43°34' E 010°18'0 0.0
2015-Jul-29 10:33N 43°34' E 010°18'0 0.0
2015-Jul-29 09:33N 43°34' E 010°18'0 0.0
2015-Jul-29 08:33N 43°34' E 010°18'0 0.0
2015-Jul-29 07:33N 43°34' E 010°18'0 0.0
2015-Jul-29 06:33N 43°34' E 010°18'0 0.0
2015-Jul-29 05:33N 43°34' E 010°18'0 0.0
2015-Jul-29 04:33N 43°34' E 010°18'0 0.0
2015-Jul-29 03:33N 43°34' E 010°18'0 0.0
2015-Jul-29 02:33N 43°34' E 010°18'0 0.0
2015-Jul-29 01:33N 43°34' E 010°18'0 0.0
2015-Jul-29 00:33N 43°34' E 010°18'0 0.0
2015-Jul-28 23:33N 43°34' E 010°18'0 0.0
2015-Jul-28 22:33N 43°34' E 010°18'0 0.0
2015-Jul-28 21:33N 43°34' E 010°18'0 0.0
2015-Jul-28 20:33N 43°34' E 010°18'0 0.0
2015-Jul-28 19:33N 43°34' E 010°18'0 0.0
2015-Jul-28 18:33N 43°34' E 010°18'0 0.0
2015-Jul-28 17:33N 43°34' E 010°18'0 0.0
2015-Jul-28 16:33N 43°34' E 010°18'0 0.0
2015-Jul-28 15:33N 43°34' E 010°18'0 0.0
2015-Jul-28 14:33N 43°34' E 010°18'0 0.0
2015-Jul-28 13:33N 43°34' E 010°18'0 0.0
2015-Jul-28 12:33N 43°34' E 010°18'0 0.0
2015-Jul-28 11:33N 43°34' E 010°18'0 0.0
2015-Jul-28 10:33N 43°34' E 010°18'0 0.0
2015-Jul-28 09:33N 43°34' E 010°18'0 0.0
2015-Jul-28 08:33N 43°34' E 010°18'2 2.4
2015-Jul-28 07:33N 43°31' E 010°16'1 1.4
2015-Jul-28 06:33N 43°30' E 010°17'0 0.1
2015-Jul-28 05:33N 43°30' E 010°17'0 0.0
2015-Jul-28 04:33N 43°30' E 010°17'0 0.0
2015-Jul-28 03:33N 43°30' E 010°17'0 0.0
2015-Jul-28 02:33N 43°30' E 010°17'0 0.0
2015-Jul-28 01:33N 43°30' E 010°17'0 0.0
2015-Jul-28 00:33N 43°30' E 010°17'0 0.1
2015-Jul-27 23:33N 43°30' E 010°17'1110.9
2015-Jul-27 22:33N 43°23' E 010°06'1312.8
2015-Jul-27 21:33N 43°17' E 009°50'1313.1
2015-Jul-27 20:33N 43°12' E 009°34'1613.8
2015-Jul-27 19:24N 43°06' E 009°13'5313.7
2015-Jul-27 15:33N 42°47' E 008°06'1313.3
2015-Jul-27 14:33N 42°43' E 007°49'1313.0
2015-Jul-27 13:33N 42°38' E 007°33'1513.0
2015-Jul-27 12:26N 42°33' E 007°14'1213.1
2015-Jul-27 11:33N 42°29' E 006°59'1513.4
2015-Jul-27 10:28N 42°23' E 006°41'1313.5
2015-Jul-27 09:32N 42°19' E 006°25'3913.1
2015-Jul-27 06:33N 42°05' E 005°36'4413.0
2015-Jul-27 03:11N 41°49' E 004°41'1112.6
2015-Jul-27 02:18N 41°45' E 004°27'912.5
2015-Jul-27 01:33N 41°42' E 004°15'1212.4
2015-Jul-27 00:33N 41°37' E 004°00'8912.6
2015-Jul-26 17:30N 41°05' E 002°10'1412.7
2015-Jul-26 16:24N 41°03' E 001°52'1613.2
2015-Jul-26 15:09N 41°04' E 001°30'11 0.2
2015-Jul-24 17:25N 41°04' E 001°16'0 0.0
2015-Jul-24 16:22N 41°04' E 001°16'0 0.0
2015-Jul-24 03:13N 41°04' E 001°16'0 0.0
2015-Jul-24 02:19N 41°04' E 001°16'0 0.0
2015-Jul-24 00:07N 41°04' E 001°16'0 0.0
2015-Jul-23 23:31N 41°04' E 001°16'0 0.0
2015-Jul-23 12:25N 41°04' E 001°16'0 0.0
2015-Jul-23 00:31N 41°04' E 001°16'0 0.0
2015-Jul-22 16:25N 41°04' E 001°16'0 0.0
2015-Jul-22 15:33N 41°04' E 001°16'  

Dump ship's entire track history